sensor_id;sensor_type;location;lat;lon;timestamp;temperature;humidity
16347;DHT22;8283;48.504;13.734;2023-03-21T00:02:20;13.70;60.40
16347;DHT22;8283;48.504;13.734;2023-03-21T00:05:07;13.70;60.40
16347;DHT22;8283;48.504;13.734;2023-03-21T00:07:52;13.60;60.30
16347;DHT22;8283;48.504;13.734;2023-03-21T00:10:36;13.60;60.40
16347;DHT22;8283;48.504;13.734;2023-03-21T00:13:21;13.70;60.60
16347;DHT22;8283;48.504;13.734;2023-03-21T00:16:12;13.70;60.40
16347;DHT22;8283;48.504;13.734;2023-03-21T00:19:00;13.60;60.70
16347;DHT22;8283;48.504;13.734;2023-03-21T00:21:46;13.40;60.40
16347;DHT22;8283;48.504;13.734;2023-03-21T00:24:34;13.80;60.60
16347;DHT22;8283;48.504;13.734;2023-03-21T00:27:19;13.50;60.50
16347;DHT22;8283;48.504;13.734;2023-03-21T00:30:05;13.50;60.50
16347;DHT22;8283;48.504;13.734;2023-03-21T00:32:51;13.40;60.50
16347;DHT22;8283;48.504;13.734;2023-03-21T00:35:35;13.30;60.40
16347;DHT22;8283;48.504;13.734;2023-03-21T00:38:23;13.80;60.60
16347;DHT22;8283;48.504;13.734;2023-03-21T00:41:09;13.30;60.60
16347;DHT22;8283;48.504;13.734;2023-03-21T00:43:54;13.20;60.30
16347;DHT22;8283;48.504;13.734;2023-03-21T00:46:41;13.20;60.20
16347;DHT22;8283;48.504;13.734;2023-03-21T00:49:25;13.20;60.10
16347;DHT22;8283;48.504;13.734;2023-03-21T00:52:10;13.60;60.40
16347;DHT22;8283;48.504;13.734;2023-03-21T00:54:55;13.10;60.10
16347;DHT22;8283;48.504;13.734;2023-03-21T00:57:39;13.80;60.60
16347;DHT22;8283;48.504;13.734;2023-03-21T01:00:24;13.40;60.30
16347;DHT22;8283;48.504;13.734;2023-03-21T01:03:11;14.60;61.40
16347;DHT22;8283;48.504;13.734;2023-03-21T01:05:57;13.50;61.00
16347;DHT22;8283;48.504;13.734;2023-03-21T01:08:48;13.10;60.50
16347;DHT22;8283;48.504;13.734;2023-03-21T01:11:34;13.20;60.60
16347;DHT22;8283;48.504;13.734;2023-03-21T01:14:20;13.50;61.10
16347;DHT22;8283;48.504;13.734;2023-03-21T01:17:05;12.80;60.80
16347;DHT22;8283;48.504;13.734;2023-03-21T01:19:50;12.80;60.70
16347;DHT22;8283;48.504;13.734;2023-03-21T01:22:35;14.10;61.60
16347;DHT22;8283;48.504;13.734;2023-03-21T01:25:20;13.10;61.20
16347;DHT22;8283;48.504;13.734;2023-03-21T01:28:05;13.60;61.70
16347;DHT22;8283;48.504;13.734;2023-03-21T01:30:50;13.60;61.70
16347;DHT22;8283;48.504;13.734;2023-03-21T01:33:35;12.70;61.30
16347;DHT22;8283;48.504;13.734;2023-03-21T01:36:23;13.30;61.60
16347;DHT22;8283;48.504;13.734;2023-03-21T01:39:09;12.70;61.60
16347;DHT22;8283;48.504;13.734;2023-03-21T01:41:54;13.10;61.50
16347;DHT22;8283;48.504;13.734;2023-03-21T01:45:05;14.00;62.20
16347;DHT22;8283;48.504;13.734;2023-03-21T01:47:59;12.70;62.90
16347;DHT22;8283;48.504;13.734;2023-03-21T01:50:56;13.10;61.60
16347;DHT22;8283;48.504;13.734;2023-03-21T01:53:54;12.70;61.40
16347;DHT22;8283;48.504;13.734;2023-03-21T01:56:39;12.70;61.50
16347;DHT22;8283;48.504;13.734;2023-03-21T01:59:51;12.70;61.60
16347;DHT22;8283;48.504;13.734;2023-03-21T02:02:42;13.10;63.40
16347;DHT22;8283;48.504;13.734;2023-03-21T02:05:54;13.80;62.50
16347;DHT22;8283;48.504;13.734;2023-03-21T02:08:42;12.70;62.10
16347;DHT22;8283;48.504;13.734;2023-03-21T02:11:31;14.00;62.50
16347;DHT22;8283;48.504;13.734;2023-03-21T02:14:18;13.00;62.10
16347;DHT22;8283;48.504;13.734;2023-03-21T02:17:35;13.20;62.60
16347;DHT22;8283;48.504;13.734;2023-03-21T02:45:20;12.70;62.90
16347;DHT22;8283;48.504;13.734;2023-03-21T02:48:16;12.90;63.50
16347;DHT22;8283;48.504;13.734;2023-03-21T02:51:04;13.60;63.10
16347;DHT22;8283;48.504;13.734;2023-03-21T02:54:03;12.70;62.40
16347;DHT22;8283;48.504;13.734;2023-03-21T02:56:54;13.10;63.80
16347;DHT22;8283;48.504;13.734;2023-03-21T02:59:40;12.80;62.80
16347;DHT22;8283;48.504;13.734;2023-03-21T03:02:29;12.90;62.60
16347;DHT22;8283;48.504;13.734;2023-03-21T03:05:35;13.70;63.20
16347;DHT22;8283;48.504;13.734;2023-03-21T03:11:28;12.80;63.20
16347;DHT22;8283;48.504;13.734;2023-03-21T03:23:52;12.80;63.80
16347;DHT22;8283;48.504;13.734;2023-03-21T03:26:47;12.90;64.50
16347;DHT22;8283;48.504;13.734;2023-03-21T03:29:36;12.80;63.10
16347;DHT22;8283;48.504;13.734;2023-03-21T03:32:33;12.90;63.00
16347;DHT22;8283;48.504;13.734;2023-03-21T03:35:20;12.80;63.70
16347;DHT22;8283;48.504;13.734;2023-03-21T03:38:08;12.80;62.80
16347;DHT22;8283;48.504;13.734;2023-03-21T03:41:09;12.80;63.20
16347;DHT22;8283;48.504;13.734;2023-03-21T03:44:03;12.80;63.90
16347;DHT22;8283;48.504;13.734;2023-03-21T03:46:55;13.80;63.60
16347;DHT22;8283;48.504;13.734;2023-03-21T03:49:55;13.00;63.10
16347;DHT22;8283;48.504;13.734;2023-03-21T03:52:46;13.20;64.60
16347;DHT22;8283;48.504;13.734;2023-03-21T03:55:36;13.20;64.60
16347;DHT22;8283;48.504;13.734;2023-03-21T03:58:28;12.80;63.50
16347;DHT22;8283;48.504;13.734;2023-03-21T04:01:13;12.80;63.20
16347;DHT22;8283;48.504;13.734;2023-03-21T04:03:58;12.70;63.00
16347;DHT22;8283;48.504;13.734;2023-03-21T04:06:44;12.50;63.00
16347;DHT22;8283;48.504;13.734;2023-03-21T04:09:38;13.00;63.40
16347;DHT22;8283;48.504;13.734;2023-03-21T04:12:23;13.00;63.30
16347;DHT22;8283;48.504;13.734;2023-03-21T04:15:26;12.60;63.10
16347;DHT22;8283;48.504;13.734;2023-03-21T04:18:16;12.40;62.80
16347;DHT22;8283;48.504;13.734;2023-03-21T04:21:05;13.90;63.80
16347;DHT22;8283;48.504;13.734;2023-03-21T04:23:51;12.60;63.10
16347;DHT22;8283;48.504;13.734;2023-03-21T04:26:39;12.60;63.40
16347;DHT22;8283;48.504;13.734;2023-03-21T04:29:46;12.50;63.40
16347;DHT22;8283;48.504;13.734;2023-03-21T04:32:43;12.50;63.80
16347;DHT22;8283;48.504;13.734;2023-03-21T04:35:32;12.50;64.00
16347;DHT22;8283;48.504;13.734;2023-03-21T04:38:20;12.50;63.90
16347;DHT22;8283;48.504;13.734;2023-03-21T04:41:05;12.40;64.00
16347;DHT22;8283;48.504;13.734;2023-03-21T04:43:50;12.40;63.90
16347;DHT22;8283;48.504;13.734;2023-03-21T04:46:37;12.40;64.00
16347;DHT22;8283;48.504;13.734;2023-03-21T04:49:22;12.30;64.10
16347;DHT22;8283;48.504;13.734;2023-03-21T04:52:07;12.30;64.00
16347;DHT22;8283;48.504;13.734;2023-03-21T04:54:53;12.30;63.80
16347;DHT22;8283;48.504;13.734;2023-03-21T04:57:37;12.30;64.10
16347;DHT22;8283;48.504;13.734;2023-03-21T05:00:22;12.30;64.10
16347;DHT22;8283;48.504;13.734;2023-03-21T05:03:07;12.30;64.10
16347;DHT22;8283;48.504;13.734;2023-03-21T05:05:52;12.30;64.20
16347;DHT22;8283;48.504;13.734;2023-03-21T05:08:37;12.30;64.20
16347;DHT22;8283;48.504;13.734;2023-03-21T05:11:22;12.30;64.20
16347;DHT22;8283;48.504;13.734;2023-03-21T05:14:09;12.30;64.20
16347;DHT22;8283;48.504;13.734;2023-03-21T05:16:55;12.30;64.50
16347;DHT22;8283;48.504;13.734;2023-03-21T05:19:40;12.40;64.50
16347;DHT22;8283;48.504;13.734;2023-03-21T05:22:26;12.40;64.50
16347;DHT22;8283;48.504;13.734;2023-03-21T05:25:13;12.40;64.50
16347;DHT22;8283;48.504;13.734;2023-03-21T05:28:25;12.40;64.60
16347;DHT22;8283;48.504;13.734;2023-03-21T05:31:19;12.50;64.70
16347;DHT22;8283;48.504;13.734;2023-03-21T05:34:12;12.50;64.90
16347;DHT22;8283;48.504;13.734;2023-03-21T05:36:56;12.50;65.00
16347;DHT22;8283;48.504;13.734;2023-03-21T05:39:46;12.50;64.50
16347;DHT22;8283;48.504;13.734;2023-03-21T05:42:37;12.60;64.60
16347;DHT22;8283;48.504;13.734;2023-03-21T05:45:30;12.60;64.40
16347;DHT22;8283;48.504;13.734;2023-03-21T05:48:15;12.60;64.40
16347;DHT22;8283;48.504;13.734;2023-03-21T05:51:19;12.60;64.40
16347;DHT22;8283;48.504;13.734;2023-03-21T05:54:04;12.60;64.40
16347;DHT22;8283;48.504;13.734;2023-03-21T05:56:49;12.60;64.40
16347;DHT22;8283;48.504;13.734;2023-03-21T05:59:46;12.60;64.40
16347;DHT22;8283;48.504;13.734;2023-03-21T06:02:31;12.70;64.50
16347;DHT22;8283;48.504;13.734;2023-03-21T06:05:19;12.70;64.60
16347;DHT22;8283;48.504;13.734;2023-03-21T06:08:05;12.80;64.60
16347;DHT22;8283;48.504;13.734;2023-03-21T06:10:50;12.70;64.70
16347;DHT22;8283;48.504;13.734;2023-03-21T06:13:35;12.70;64.50
16347;DHT22;8283;48.504;13.734;2023-03-21T06:16:19;12.80;64.50
16347;DHT22;8283;48.504;13.734;2023-03-21T06:19:03;12.80;64.50
16347;DHT22;8283;48.504;13.734;2023-03-21T06:22:01;12.80;64.50
16347;DHT22;8283;48.504;13.734;2023-03-21T06:24:46;12.80;64.40
16347;DHT22;8283;48.504;13.734;2023-03-21T06:27:30;12.80;64.40
16347;DHT22;8283;48.504;13.734;2023-03-21T06:30:15;12.80;64.50
16347;DHT22;8283;48.504;13.734;2023-03-21T06:33:12;12.90;64.80
16347;DHT22;8283;48.504;13.734;2023-03-21T06:35:57;12.90;65.00
16347;DHT22;8283;48.504;13.734;2023-03-21T06:38:42;12.90;65.30
16347;DHT22;8283;48.504;13.734;2023-03-21T06:41:27;13.80;65.90
16347;DHT22;8283;48.504;13.734;2023-03-21T06:44:17;13.10;65.40
16347;DHT22;8283;48.504;13.734;2023-03-21T06:47:10;13.10;65.30
16347;DHT22;8283;48.504;13.734;2023-03-21T06:49:55;13.20;65.20
16347;DHT22;8283;48.504;13.734;2023-03-21T06:52:42;13.30;65.10
16347;DHT22;8283;48.504;13.734;2023-03-21T06:55:28;13.30;65.10
16347;DHT22;8283;48.504;13.734;2023-03-21T06:58:14;13.30;64.90
16347;DHT22;8283;48.504;13.734;2023-03-21T07:01:00;13.40;65.00
16347;DHT22;8283;48.504;13.734;2023-03-21T07:03:47;13.50;65.30
16347;DHT22;8283;48.504;13.734;2023-03-21T07:06:32;13.50;65.30
16347;DHT22;8283;48.504;13.734;2023-03-21T07:09:17;13.50;65.50
16347;DHT22;8283;48.504;13.734;2023-03-21T07:12:05;13.60;65.90
16347;DHT22;8283;48.504;13.734;2023-03-21T07:15:09;13.70;66.30
16347;DHT22;8283;48.504;13.734;2023-03-21T07:17:56;13.90;66.80
16347;DHT22;8283;48.504;13.734;2023-03-21T07:20:40;14.10;66.90
16347;DHT22;8283;48.504;13.734;2023-03-21T07:23:25;14.20;66.70
16347;DHT22;8283;48.504;13.734;2023-03-21T07:26:10;14.40;66.60
16347;DHT22;8283;48.504;13.734;2023-03-21T07:28:54;14.50;66.30
16347;DHT22;8283;48.504;13.734;2023-03-21T07:31:39;14.70;66.30
16347;DHT22;8283;48.504;13.734;2023-03-21T07:34:23;14.80;66.30
16347;DHT22;8283;48.504;13.734;2023-03-21T07:37:08;14.90;66.30
16347;DHT22;8283;48.504;13.734;2023-03-21T07:39:53;15.10;66.30
16347;DHT22;8283;48.504;13.734;2023-03-21T07:42:39;15.20;66.30
16347;DHT22;8283;48.504;13.734;2023-03-21T07:45:24;15.40;66.40
16347;DHT22;8283;48.504;13.734;2023-03-21T07:48:11;15.60;66.40
16347;DHT22;8283;48.504;13.734;2023-03-21T07:50:56;15.80;66.40
16347;DHT22;8283;48.504;13.734;2023-03-21T07:53:41;15.90;66.40
16347;DHT22;8283;48.504;13.734;2023-03-21T07:56:27;16.20;66.50
16347;DHT22;8283;48.504;13.734;2023-03-21T07:59:11;16.40;66.40
16347;DHT22;8283;48.504;13.734;2023-03-21T08:01:55;16.60;66.30
16347;DHT22;8283;48.504;13.734;2023-03-21T08:04:40;16.90;66.30
16347;DHT22;8283;48.504;13.734;2023-03-21T08:07:24;17.00;66.30
16347;DHT22;8283;48.504;13.734;2023-03-21T08:10:10;17.20;66.50
16347;DHT22;8283;48.504;13.734;2023-03-21T08:12:55;17.40;66.60
16347;DHT22;8283;48.504;13.734;2023-03-21T08:15:39;17.60;66.60
16347;DHT22;8283;48.504;13.734;2023-03-21T08:18:25;17.90;66.50
16347;DHT22;8283;48.504;13.734;2023-03-21T08:21:09;18.20;65.50
16347;DHT22;8283;48.504;13.734;2023-03-21T08:24:02;18.30;65.00
16347;DHT22;8283;48.504;13.734;2023-03-21T08:26:47;18.40;65.30
16347;DHT22;8283;48.504;13.734;2023-03-21T08:29:32;18.60;65.80
16347;DHT22;8283;48.504;13.734;2023-03-21T08:32:17;18.90;66.30
16347;DHT22;8283;48.504;13.734;2023-03-21T08:35:03;19.10;66.50
16347;DHT22;8283;48.504;13.734;2023-03-21T08:37:47;19.40;66.90
16347;DHT22;8283;48.504;13.734;2023-03-21T08:40:32;19.70;66.90
16347;DHT22;8283;48.504;13.734;2023-03-21T08:43:17;19.90;66.50
16347;DHT22;8283;48.504;13.734;2023-03-21T08:46:01;20.30;66.40
16347;DHT22;8283;48.504;13.734;2023-03-21T08:48:47;20.70;66.30
16347;DHT22;8283;48.504;13.734;2023-03-21T08:51:31;20.90;66.30
16347;DHT22;8283;48.504;13.734;2023-03-21T08:54:20;21.20;66.00
16347;DHT22;8283;48.504;13.734;2023-03-21T08:57:06;21.60;65.20
16347;DHT22;8283;48.504;13.734;2023-03-21T08:59:51;21.90;65.60
16347;DHT22;8283;48.504;13.734;2023-03-21T09:02:35;22.30;63.70
16347;DHT22;8283;48.504;13.734;2023-03-21T09:05:20;22.50;61.20
16347;DHT22;8283;48.504;13.734;2023-03-21T09:08:06;22.60;59.80
16347;DHT22;8283;48.504;13.734;2023-03-21T09:10:54;22.70;59.10
16347;DHT22;8283;48.504;13.734;2023-03-21T09:13:38;22.80;56.50
16347;DHT22;8283;48.504;13.734;2023-03-21T09:16:23;22.80;57.40
16347;DHT22;8283;48.504;13.734;2023-03-21T09:19:08;22.80;57.50
16347;DHT22;8283;48.504;13.734;2023-03-21T09:21:53;22.80;57.30
16347;DHT22;8283;48.504;13.734;2023-03-21T09:24:39;22.90;58.00
16347;DHT22;8283;48.504;13.734;2023-03-21T09:27:25;22.90;57.50
16347;DHT22;8283;48.504;13.734;2023-03-21T09:30:13;23.00;56.00
16347;DHT22;8283;48.504;13.734;2023-03-21T09:33:03;23.00;56.00
16347;DHT22;8283;48.504;13.734;2023-03-21T09:35:53;23.00;55.30
16347;DHT22;8283;48.504;13.734;2023-03-21T09:38:37;23.10;56.30
16347;DHT22;8283;48.504;13.734;2023-03-21T09:44:55;23.10;53.90
16347;DHT22;8283;48.504;13.734;2023-03-21T09:47:45;23.10;50.90
16347;DHT22;8283;48.504;13.734;2023-03-21T09:50:37;23.10;55.00
16347;DHT22;8283;48.504;13.734;2023-03-21T09:53:28;23.10;55.70
16347;DHT22;8283;48.504;13.734;2023-03-21T09:56:16;23.10;54.50
16347;DHT22;8283;48.504;13.734;2023-03-21T09:59:02;23.20;54.10
16347;DHT22;8283;48.504;13.734;2023-03-21T10:01:50;23.10;55.50
16347;DHT22;8283;48.504;13.734;2023-03-21T10:04:35;23.20;55.30
16347;DHT22;8283;48.504;13.734;2023-03-21T10:07:21;23.20;54.70
16347;DHT22;8283;48.504;13.734;2023-03-21T10:10:05;23.20;53.20
16347;DHT22;8283;48.504;13.734;2023-03-21T10:12:52;23.20;53.00
16347;DHT22;8283;48.504;13.734;2023-03-21T10:15:37;23.20;52.10
16347;DHT22;8283;48.504;13.734;2023-03-21T10:18:25;23.00;52.50
16347;DHT22;8283;48.504;13.734;2023-03-21T10:21:21;23.00;53.10
16347;DHT22;8283;48.504;13.734;2023-03-21T10:24:11;23.00;53.10
16347;DHT22;8283;48.504;13.734;2023-03-21T10:26:57;23.10;52.50
16347;DHT22;8283;48.504;13.734;2023-03-21T10:29:43;23.20;53.60
16347;DHT22;8283;48.504;13.734;2023-03-21T10:32:29;23.20;51.90
16347;DHT22;8283;48.504;13.734;2023-03-21T10:35:13;23.20;52.10
16347;DHT22;8283;48.504;13.734;2023-03-21T10:37:59;23.20;53.10
16347;DHT22;8283;48.504;13.734;2023-03-21T10:40:45;23.30;53.40
16347;DHT22;8283;48.504;13.734;2023-03-21T10:43:33;23.30;53.00
16347;DHT22;8283;48.504;13.734;2023-03-21T10:46:19;23.50;52.70
16347;DHT22;8283;48.504;13.734;2023-03-21T10:49:07;23.50;52.40
16347;DHT22;8283;48.504;13.734;2023-03-21T10:51:55;23.60;52.20
16347;DHT22;8283;48.504;13.734;2023-03-21T10:54:41;23.70;51.70
16347;DHT22;8283;48.504;13.734;2023-03-21T10:57:26;23.80;51.80
16347;DHT22;8283;48.504;13.734;2023-03-21T11:00:18;23.70;51.60
16347;DHT22;8283;48.504;13.734;2023-03-21T11:03:05;23.80;50.80
16347;DHT22;8283;48.504;13.734;2023-03-21T11:05:57;23.90;51.80
16347;DHT22;8283;48.504;13.734;2023-03-21T11:08:47;23.90;51.80
16347;DHT22;8283;48.504;13.734;2023-03-21T11:11:37;24.00;52.60
16347;DHT22;8283;48.504;13.734;2023-03-21T11:14:39;24.30;53.70
16347;DHT22;8283;48.504;13.734;2023-03-21T11:17:29;24.70;52.40
16347;DHT22;8283;48.504;13.734;2023-03-21T11:20:17;25.10;53.60
16347;DHT22;8283;48.504;13.734;2023-03-21T11:23:05;25.70;54.00
16347;DHT22;8283;48.504;13.734;2023-03-21T11:25:50;26.20;53.10
16347;DHT22;8283;48.504;13.734;2023-03-21T11:28:37;26.50;51.20
16347;DHT22;8283;48.504;13.734;2023-03-21T11:31:36;26.70;49.70
16347;DHT22;8283;48.504;13.734;2023-03-21T11:34:32;26.70;46.90
16347;DHT22;8283;48.504;13.734;2023-03-21T11:37:38;26.80;48.50
16347;DHT22;8283;48.504;13.734;2023-03-21T11:40:36;26.80;45.40
16347;DHT22;8283;48.504;13.734;2023-03-21T11:43:28;26.70;47.80
16347;DHT22;8283;48.504;13.734;2023-03-21T11:46:13;26.60;47.40
16347;DHT22;8283;48.504;13.734;2023-03-21T11:48:59;26.50;47.50
16347;DHT22;8283;48.504;13.734;2023-03-21T11:51:56;26.20;47.40
16347;DHT22;8283;48.504;13.734;2023-03-21T11:58:01;25.70;46.80
16347;DHT22;8283;48.504;13.734;2023-03-21T12:01:02;25.50;47.40
16347;DHT22;8283;48.504;13.734;2023-03-21T12:19:49;24.50;47.20
16347;DHT22;8283;48.504;13.734;2023-03-21T12:25:49;24.20;47.50
16347;DHT22;8283;48.504;13.734;2023-03-21T12:28:45;24.10;46.90
16347;DHT22;8283;48.504;13.734;2023-03-21T12:31:56;24.00;47.40
16347;DHT22;8283;48.504;13.734;2023-03-21T12:35:11;23.90;47.70
16347;DHT22;8283;48.504;13.734;2023-03-21T12:38:12;23.70;46.30
16347;DHT22;8283;48.504;13.734;2023-03-21T12:43:54;23.70;49.00
16347;DHT22;8283;48.504;13.734;2023-03-21T12:46:47;23.90;49.10
16347;DHT22;8283;48.504;13.734;2023-03-21T12:50:07;24.00;49.20
16347;DHT22;8283;48.504;13.734;2023-03-21T12:52:52;24.20;48.00
16347;DHT22;8283;48.504;13.734;2023-03-21T12:55:40;24.40;49.40
16347;DHT22;8283;48.504;13.734;2023-03-21T12:58:25;24.70;49.30
16347;DHT22;8283;48.504;13.734;2023-03-21T13:01:11;25.00;50.00
16347;DHT22;8283;48.504;13.734;2023-03-21T13:04:29;25.40;50.40
16347;DHT22;8283;48.504;13.734;2023-03-21T13:07:17;25.80;48.80
16347;DHT22;8283;48.504;13.734;2023-03-21T13:10:14;26.30;49.60
16347;DHT22;8283;48.504;13.734;2023-03-21T13:19:42;27.50;45.80
16347;DHT22;8283;48.504;13.734;2023-03-21T13:22:30;27.70;46.70
16347;DHT22;8283;48.504;13.734;2023-03-21T13:25:22;27.70;46.30
16347;DHT22;8283;48.504;13.734;2023-03-21T13:28:20;27.60;44.50
16347;DHT22;8283;48.504;13.734;2023-03-21T13:31:20;27.50;44.80
16347;DHT22;8283;48.504;13.734;2023-03-21T13:34:08;27.50;44.80
16347;DHT22;8283;48.504;13.734;2023-03-21T13:36:55;27.50;46.20
16347;DHT22;8283;48.504;13.734;2023-03-21T13:39:45;27.70;46.90
16347;DHT22;8283;48.504;13.734;2023-03-21T13:42:32;27.90;46.50
16347;DHT22;8283;48.504;13.734;2023-03-21T13:45:27;28.20;47.80
16347;DHT22;8283;48.504;13.734;2023-03-21T13:48:28;28.60;46.20
16347;DHT22;8283;48.504;13.734;2023-03-21T13:51:13;28.90;45.50
16347;DHT22;8283;48.504;13.734;2023-03-21T13:57:04;29.50;44.60
16347;DHT22;8283;48.504;13.734;2023-03-21T14:00:13;29.70;45.60
16347;DHT22;8283;48.504;13.734;2023-03-21T14:03:12;30.00;43.00
16347;DHT22;8283;48.504;13.734;2023-03-21T14:05:58;30.10;44.70
16347;DHT22;8283;48.504;13.734;2023-03-21T14:08:45;30.10;44.70
16347;DHT22;8283;48.504;13.734;2023-03-21T14:11:31;30.20;44.50
16347;DHT22;8283;48.504;13.734;2023-03-21T14:14:19;30.20;43.60
16347;DHT22;8283;48.504;13.734;2023-03-21T14:17:24;30.30;43.90
16347;DHT22;8283;48.504;13.734;2023-03-21T14:20:18;30.30;42.10
16347;DHT22;8283;48.504;13.734;2023-03-21T14:23:07;30.40;42.90
16347;DHT22;8283;48.504;13.734;2023-03-21T14:25:51;30.50;42.60
16347;DHT22;8283;48.504;13.734;2023-03-21T14:28:36;30.50;42.40
16347;DHT22;8283;48.504;13.734;2023-03-21T14:31:23;30.40;42.70
16347;DHT22;8283;48.504;13.734;2023-03-21T14:34:09;30.30;42.50
16347;DHT22;8283;48.504;13.734;2023-03-21T14:36:54;30.30;42.00
16347;DHT22;8283;48.504;13.734;2023-03-21T14:39:39;30.10;41.80
16347;DHT22;8283;48.504;13.734;2023-03-21T14:42:24;29.90;41.90
16347;DHT22;8283;48.504;13.734;2023-03-21T14:45:29;29.80;41.60
16347;DHT22;8283;48.504;13.734;2023-03-21T14:48:15;29.60;41.00
16347;DHT22;8283;48.504;13.734;2023-03-21T14:51:05;29.40;42.00
16347;DHT22;8283;48.504;13.734;2023-03-21T14:53:52;29.40;41.60
16347;DHT22;8283;48.504;13.734;2023-03-21T14:56:37;29.30;42.20
16347;DHT22;8283;48.504;13.734;2023-03-21T14:59:25;28.80;42.00
16347;DHT22;8283;48.504;13.734;2023-03-21T15:02:22;29.10;42.20
16347;DHT22;8283;48.504;13.734;2023-03-21T15:05:25;29.00;42.80
16347;DHT22;8283;48.504;13.734;2023-03-21T15:08:15;28.90;42.10
16347;DHT22;8283;48.504;13.734;2023-03-21T15:11:04;28.80;42.40
16347;DHT22;8283;48.504;13.734;2023-03-21T15:13:49;28.70;42.40
16347;DHT22;8283;48.504;13.734;2023-03-21T15:16:38;28.60;42.40
16347;DHT22;8283;48.504;13.734;2023-03-21T15:19:28;28.50;42.20
16347;DHT22;8283;48.504;13.734;2023-03-21T15:25:16;28.20;41.10
16347;DHT22;8283;48.504;13.734;2023-03-21T15:28:02;28.10;41.70
16347;DHT22;8283;48.504;13.734;2023-03-21T15:30:48;28.00;42.10
16347;DHT22;8283;48.504;13.734;2023-03-21T15:33:33;27.80;42.00
16347;DHT22;8283;48.504;13.734;2023-03-21T15:36:25;27.70;42.00
16347;DHT22;8283;48.504;13.734;2023-03-21T15:39:15;27.60;41.90
16347;DHT22;8283;48.504;13.734;2023-03-21T15:44:47;27.30;42.00
16347;DHT22;8283;48.504;13.734;2023-03-21T15:53:41;26.90;41.80
16347;DHT22;8283;48.504;13.734;2023-03-21T15:56:26;26.70;42.00
16347;DHT22;8283;48.504;13.734;2023-03-21T15:59:18;26.50;42.10
16347;DHT22;8283;48.504;13.734;2023-03-21T16:02:03;26.30;42.10
16347;DHT22;8283;48.504;13.734;2023-03-21T16:04:59;26.10;42.20
16347;DHT22;8283;48.504;13.734;2023-03-21T16:07:45;26.00;42.20
16347;DHT22;8283;48.504;13.734;2023-03-21T16:10:35;25.80;42.30
16347;DHT22;8283;48.504;13.734;2023-03-21T16:13:19;25.60;42.60
16347;DHT22;8283;48.504;13.734;2023-03-21T16:16:04;25.50;42.70
16347;DHT22;8283;48.504;13.734;2023-03-21T16:18:49;25.40;42.80
16347;DHT22;8283;48.504;13.734;2023-03-21T16:21:34;25.30;42.80
16347;DHT22;8283;48.504;13.734;2023-03-21T16:24:22;25.30;43.00
16347;DHT22;8283;48.504;13.734;2023-03-21T16:27:09;25.20;43.10
16347;DHT22;8283;48.504;13.734;2023-03-21T16:29:54;25.00;43.30
16347;DHT22;8283;48.504;13.734;2023-03-21T16:32:39;25.00;43.30
16347;DHT22;8283;48.504;13.734;2023-03-21T16:35:23;24.80;43.40
16347;DHT22;8283;48.504;13.734;2023-03-21T16:38:11;24.70;43.50
16347;DHT22;8283;48.504;13.734;2023-03-21T16:40:55;24.60;43.60
16347;DHT22;8283;48.504;13.734;2023-03-21T16:43:40;24.40;43.50
16347;DHT22;8283;48.504;13.734;2023-03-21T16:46:28;24.20;43.50
16347;DHT22;8283;48.504;13.734;2023-03-21T16:49:18;24.10;43.60
16347;DHT22;8283;48.504;13.734;2023-03-21T16:52:02;23.90;43.90
16347;DHT22;8283;48.504;13.734;2023-03-21T16:54:47;23.70;43.80
16347;DHT22;8283;48.504;13.734;2023-03-21T16:57:31;23.50;44.00
16347;DHT22;8283;48.504;13.734;2023-03-21T17:00:17;23.30;44.10
16347;DHT22;8283;48.504;13.734;2023-03-21T17:03:12;23.10;44.30
16347;DHT22;8283;48.504;13.734;2023-03-21T17:05:57;22.90;44.70
16347;DHT22;8283;48.504;13.734;2023-03-21T17:08:41;22.70;44.30
16347;DHT22;8283;48.504;13.734;2023-03-21T17:11:26;22.60;44.40
16347;DHT22;8283;48.504;13.734;2023-03-21T17:14:15;22.30;44.50
16347;DHT22;8283;48.504;13.734;2023-03-21T17:17:00;22.10;44.70
16347;DHT22;8283;48.504;13.734;2023-03-21T17:19:44;21.90;44.80
16347;DHT22;8283;48.504;13.734;2023-03-21T17:22:29;21.80;45.00
16347;DHT22;8283;48.504;13.734;2023-03-21T17:25:15;21.60;45.40
16347;DHT22;8283;48.504;13.734;2023-03-21T17:28:00;21.30;45.40
16347;DHT22;8283;48.504;13.734;2023-03-21T17:30:44;21.20;45.50
16347;DHT22;8283;48.504;13.734;2023-03-21T17:33:29;21.00;45.60
16347;DHT22;8283;48.504;13.734;2023-03-21T17:36:40;20.90;45.70
16347;DHT22;8283;48.504;13.734;2023-03-21T17:39:24;20.70;46.10
16347;DHT22;8283;48.504;13.734;2023-03-21T17:42:14;20.50;46.00
16347;DHT22;8283;48.504;13.734;2023-03-21T17:44:59;20.40;46.50
16347;DHT22;8283;48.504;13.734;2023-03-21T17:47:43;20.20;46.10
16347;DHT22;8283;48.504;13.734;2023-03-21T17:50:31;20.00;46.30
16347;DHT22;8283;48.504;13.734;2023-03-21T17:53:17;19.90;46.70
16347;DHT22;8283;48.504;13.734;2023-03-21T17:56:01;19.70;46.50
16347;DHT22;8283;48.504;13.734;2023-03-21T17:58:46;19.60;46.70
16347;DHT22;8283;48.504;13.734;2023-03-21T18:01:31;19.40;46.90
16347;DHT22;8283;48.504;13.734;2023-03-21T18:04:15;19.30;46.90
16347;DHT22;8283;48.504;13.734;2023-03-21T18:07:00;19.20;47.00
16347;DHT22;8283;48.504;13.734;2023-03-21T18:09:44;19.00;47.10
16347;DHT22;8283;48.504;13.734;2023-03-21T18:12:29;18.90;47.30
16347;DHT22;8283;48.504;13.734;2023-03-21T18:15:14;18.80;47.40
16347;DHT22;8283;48.504;13.734;2023-03-21T18:17:59;18.70;47.50
16347;DHT22;8283;48.504;13.734;2023-03-21T18:20:44;18.60;47.60
16347;DHT22;8283;48.504;13.734;2023-03-21T18:23:28;18.50;47.70
16347;DHT22;8283;48.504;13.734;2023-03-21T18:26:18;18.40;47.80
16347;DHT22;8283;48.504;13.734;2023-03-21T18:29:03;18.20;48.00
16347;DHT22;8283;48.504;13.734;2023-03-21T18:31:47;18.10;47.90
16347;DHT22;8283;48.504;13.734;2023-03-21T18:34:33;18.20;48.10
16347;DHT22;8283;48.504;13.734;2023-03-21T18:37:18;18.00;48.30
16347;DHT22;8283;48.504;13.734;2023-03-21T18:40:02;17.90;48.30
16347;DHT22;8283;48.504;13.734;2023-03-21T18:42:53;17.70;48.30
16347;DHT22;8283;48.504;13.734;2023-03-21T18:45:37;17.60;48.30
16347;DHT22;8283;48.504;13.734;2023-03-21T18:48:22;17.60;48.70
16347;DHT22;8283;48.504;13.734;2023-03-21T18:51:06;17.40;48.60
16347;DHT22;8283;48.504;13.734;2023-03-21T18:53:53;17.30;49.30
16347;DHT22;8283;48.504;13.734;2023-03-21T18:56:38;17.20;48.70
16347;DHT22;8283;48.504;13.734;2023-03-21T18:59:22;17.20;49.00
16347;DHT22;8283;48.504;13.734;2023-03-21T19:02:07;17.10;49.00
16347;DHT22;8283;48.504;13.734;2023-03-21T19:04:51;17.00;49.10
16347;DHT22;8283;48.504;13.734;2023-03-21T19:07:35;16.90;49.20
16347;DHT22;8283;48.504;13.734;2023-03-21T19:10:21;16.80;49.20
16347;DHT22;8283;48.504;13.734;2023-03-21T19:13:06;16.80;49.40